KLKU

Louisa County / Freeman Field Airport

Louisa, Virginia, USA
METAR KLKU 151535Z AUTO 34007KT 1 1/4SM -RA BR OVC003 09/08 A3006 RMK AO2 P0003
Observed Flight Rules
Dec-15 @ 15:35 UTC (28 minutes ago) Instrument Flight Rules
Wind Visibility Clouds Conditions
340° at 7 knots 1 1/4 miles
  • Overcast at 300' AGL
  • Light Rain
  • Mist
Temperatures Readings Precipitation
Current 9°C / 48°F
Dewpoint 8°C / 46°F
Humidity 94%
Altimeter 30.06" Hg
Pressure 1018 hPa
Elevation 150
Current Rain 0.03
METAR KLKU 151535Z AUTO 34007KT 1 1/4SM -RA BR OVC003 09/08 A3006 RMK AO2 P0003
Observed Flight Rules
Dec-15 @ 15:35 UTC
(28 minutes ago)
LIFR
Wind Visibility
340° at 7 knots 1 1/4 miles
Clouds
  • Overcast at 300' AGL
Conditions
  • Light Rain
  • Mist
Temperature Dewpoint
9°C / 48°F 8°C / 46°F
Humidity Altimeter Pressure
94% 30.06" Hg 1018 hPa
Current Rain
0.03